Time;durP1;ratioP1;P1;durP2;ratioP2;P2;SDS_P1;SDS_P2;PMS_P1;PMS_P2;Temp;Humidity;BMP_temperature;BMP_pressure;BME280_temperature;BME280_humidity;BME280_pressure;Samples;Min_cycle;Max_cycle;Signal;HPM_P1;HPM_P2
2021/09/29 00:00:08;;;;;;;23.05;5.70;;;;;;;14.12;73.83;101840.64;1752342;80;21493;-58
2021/09/29 00:02:39;;;;;;;18.70;4.80;;;;;;;14.14;73.92;101850.91;1745838;81;21052;-59
2021/09/29 00:05:07;;;;;;;18.27;4.85;;;;;;;14.15;73.35;101832.45;1746368;80;21084;-59
2021/09/29 00:07:34;;;;;;;23.50;5.78;;;;;;;14.13;73.71;101837.88;1748577;80;20988;-57
2021/09/29 00:10:02;;;;;;;20.12;5.55;;;;;;;14.13;73.91;101843.27;1763021;80;21080;-57
2021/09/29 00:12:29;;;;;;;23.75;5.35;;;;;;;14.14;73.90;101833.38;1765655;80;21151;-58
2021/09/29 00:14:56;;;;;;;24.98;5.65;;;;;;;14.09;73.63;101835.35;1765939;80;21001;-58
2021/09/29 00:17:23;;;;;;;31.15;5.10;;;;;;;14.05;73.56;101842.65;1764841;80;21123;-58
2021/09/29 00:19:50;;;;;;;21.50;5.72;;;;;;;14.00;73.21;101832.00;1758319;80;20985;-57
2021/09/29 00:22:18;;;;;;;26.68;5.45;;;;;;;13.94;73.24;101834.91;1759429;80;21068;-59
2021/09/29 00:24:45;;;;;;;13.53;5.05;;;;;;;13.91;73.41;101836.36;1746196;81;21624;-60
2021/09/29 00:27:12;;;;;;;28.75;5.78;;;;;;;13.88;73.60;101843.20;1745526;82;21040;-59
2021/09/29 00:29:40;;;;;;;22.58;5.92;;;;;;;13.83;73.75;101833.03;1745462;80;21082;-59
2021/09/29 00:32:08;;;;;;;17.30;5.12;;;;;;;13.81;73.91;101830.81;1748372;80;21409;-59
2021/09/29 00:34:42;;;;;;;19.60;5.80;;;;;;;13.82;73.85;101838.00;1758613;80;21084;-58
2021/09/29 00:37:10;;;;;;;;;;;;;;;13.82;73.94;101829.92;1748983;81;21923;-59
2021/09/29 00:39:37;;;;;;;18.73;5.95;;;;;;;13.80;74.07;101823.22;1745974;82;20416;-59
2021/09/29 00:42:04;;;;;;;27.27;6.28;;;;;;;13.75;74.33;101823.83;1746117;80;21395;-59
2021/09/29 00:44:32;;;;;;;20.10;6.20;;;;;;;13.74;74.69;101824.28;1763481;80;21057;-57
2021/09/29 00:47:00;;;;;;;30.80;5.90;;;;;;;13.73;74.85;101825.22;1757179;80;21060;-58
2021/09/29 00:49:27;;;;;;;24.75;6.10;;;;;;;13.69;75.17;101835.68;1757431;80;21133;-58
2021/09/29 00:51:56;;;;;;;20.40;6.12;;;;;;;13.64;75.44;101824.16;1746369;80;21028;-59
2021/09/29 00:54:28;;;;;;;28.52;6.33;;;;;;;13.68;75.65;101824.48;1746932;80;21451;-59
2021/09/29 00:56:53;;;;;;;28.00;6.72;;;;;;;13.67;75.85;101836.19;1745567;82;21800;-59
2021/09/29 00:59:21;;;;;;;22.13;6.28;;;;;;;13.65;76.10;101827.28;1746331;80;21044;-58
2021/09/29 01:01:48;;;;;;;18.85;6.22;;;;;;;13.64;76.33;101844.38;1757024;80;21145;-58
2021/09/29 01:04:15;;;;;;;24.02;6.22;;;;;;;13.59;76.61;101834.17;1758558;80;21604;-57
2021/09/29 01:06:51;;;;;;;30.88;6.80;;;;;;;13.53;76.87;101847.39;1745683;80;21053;-57
2021/09/29 01:09:51;;;;;;;23.62;6.55;;;;;;;13.51;77.38;101833.09;1758214;80;21493;-58
2021/09/29 01:12:25;;;;;;;31.17;7.33;;;;;;;13.50;77.45;101842.55;1748048;80;21020;-57
2021/09/29 01:15:07;;;;;;;26.65;6.35;;;;;;;13.49;77.43;101840.79;1751195;80;21502;-58
2021/09/29 01:17:44;;;;;;;25.60;6.58;;;;;;;13.46;77.58;101843.99;1740513;80;21131;-58
2021/09/29 01:20:18;;;;;;;32.75;7.87;;;;;;;13.46;77.66;101843.99;1733844;82;21109;-58
2021/09/29 01:23:12;;;;;;;23.90;6.87;;;;;;;13.44;77.23;101841.81;1746111;80;21071;-59
2021/09/29 01:25:56;;;;;;;30.15;7.22;;;;;;;13.41;77.19;101842.33;1733491;80;21085;-60
2021/09/29 01:28:30;;;;;;;24.67;6.42;;;;;;;13.38;77.49;101835.69;1755895;80;22066;-60
2021/09/29 01:30:58;;;;;;;28.83;6.67;;;;;;;13.35;77.40;101842.03;1753530;80;20945;-58
2021/09/29 01:33:27;;;;;;;23.52;6.12;;;;;;;13.32;77.17;101835.39;1748466;80;21088;-60
2021/09/29 01:35:54;;;;;;;25.10;5.95;;;;;;;13.31;76.95;101833.63;1746253;80;21238;-59
2021/09/29 01:38:22;;;;;;;26.02;6.20;;;;;;;13.30;77.00;101846.67;1745858;81;21092;-58
2021/09/29 01:40:50;;;;;;;28.62;6.58;;;;;;;13.26;77.04;101843.21;1746283;80;21818;-58
2021/09/29 01:43:17;;;;;;;41.10;7.53;;;;;;;13.24;77.02;101858.50;1747341;80;21068;-58
2021/09/29 01:45:46;;;;;;;25.77;6.55;;;;;;;13.17;77.07;101838.97;1728584;80;21084;-59
2021/09/29 01:48:17;;;;;;;25.60;6.60;;;;;;;13.12;77.47;101844.92;1747498;80;20989;-59
2021/09/29 01:50:47;;;;;;;25.70;6.78;;;;;;;13.09;77.76;101857.61;1724815;82;21011;-58
2021/09/29 01:53:14;;;;;;;24.30;5.78;;;;;;;13.06;77.78;101858.56;1746427;80;21800;-58
2021/09/29 01:55:42;;;;;;;28.05;6.85;;;;;;;13.01;77.86;101840.32;1746820;80;21076;-58
2021/09/29 01:58:09;;;;;;;25.05;6.12;;;;;;;12.98;77.93;101842.63;1749706;80;21060;-59
2021/09/29 02:00:37;;;;;;;32.75;6.37;;;;;;;12.95;78.33;101843.19;1746266;80;21474;-59
2021/09/29 02:03:04;;;;;;;31.37;7.53;;;;;;;12.96;78.24;101847.65;1730146;80;21024;-59
2021/09/29 02:05:33;;;;;;;28.42;6.12;;;;;;;12.93;78.18;101843.66;1758958;80;21104;-59
2021/09/29 02:08:03;;;;;;;26.33;6.70;;;;;;;12.88;78.46;101846.02;1761536;80;21143;-57
2021/09/29 02:10:30;;;;;;;42.05;7.05;;;;;;;12.88;78.49;101842.47;1777226;79;21071;-57
2021/09/29 02:12:58;;;;;;;37.53;6.45;;;;;;;12.85;78.79;101852.84;1774061;79;21123;-59
2021/09/29 02:15:25;;;;;;;61.28;8.48;;;;;;;12.80;79.08;101846.71;1779756;79;21048;-59
2021/09/29 02:17:52;;;;;;;33.08;7.03;;;;;;;12.78;79.06;101843.63;1785582;79;21134;-60
2021/09/29 02:20:21;;;;;;;30.95;7.05;;;;;;;12.75;79.24;101845.48;1777159;79;21088;-60
2021/09/29 02:22:48;;;;;;;38.45;6.75;;;;;;;12.75;79.39;101845.48;1777874;80;21126;-60
2021/09/29 02:25:15;;;;;;;24.92;6.17;;;;;;;12.75;79.29;101844.13;1782534;79;21070;-58
2021/09/29 02:27:42;;;;;;;29.72;8.10;;;;;;;12.71;79.51;101847.84;1777884;80;20992;-60
2021/09/29 02:30:10;;;;;;;47.53;7.00;;;;;;;12.66;79.65;101848.88;1777958;79;21132;-58
2021/09/29 02:32:39;;;;;;;49.88;7.20;;;;;;;12.59;79.82;101847.69;1778443;79;21084;-59
2021/09/29 02:35:07;;;;;;;29.80;6.47;;;;;;;12.54;79.96;101848.73;1789992;79;20933;-59
2021/09/29 02:37:35;;;;;;;56.25;7.70;;;;;;;12.51;80.17;101853.74;1776649;79;21132;-59
2021/09/29 02:40:04;;;;;;;41.40;7.87;;;;;;;12.47;80.20;101865.48;1790436;79;21076;-60
2021/09/29 02:42:31;;;;;;;41.42;7.67;;;;;;;12.41;80.43;101856.23;1783039;79;21778;-59
2021/09/29 02:45:00;;;;;;;50.28;8.20;;;;;;;12.37;80.57;101866.17;1776377;79;21060;-58
2021/09/29 02:47:27;;;;;;;38.08;7.58;;;;;;;12.32;80.64;101855.99;1784633;79;21200;-59
2021/09/29 02:49:54;;;;;;;32.90;6.80;;;;;;;12.27;80.84;101853.44;1797763;79;21064;-60
2021/09/29 02:52:21;;;;;;;31.02;6.92;;;;;;;12.24;81.06;101856.66;1780198;79;21083;-59
2021/09/29 02:54:48;;;;;;;26.95;6.90;;;;;;;12.23;81.46;101857.58;1760556;80;21083;-60
2021/09/29 02:57:16;;;;;;;32.38;7.90;;;;;;;12.20;81.57;101853.14;1760206;80;21068;-59
2021/09/29 02:59:43;;;;;;;38.20;7.78;;;;;;;12.15;81.70;101859.09;1747177;80;21044;-58
2021/09/29 03:02:11;;;;;;;41.98;7.85;;;;;;;12.12;82.08;101866.77;1780039;80;21836;-58
2021/09/29 03:04:38;;;;;;;33.73;7.03;;;;;;;12.14;82.11;101866.74;1777630;79;21513;-58
2021/09/29 03:07:07;;;;;;;51.50;8.33;;;;;;;12.11;81.86;101866.82;1787034;79;21392;-58
2021/09/29 03:09:36;;;;;;;27.13;7.08;;;;;;;12.09;81.87;101865.50;1746181;80;21083;-58
2021/09/29 03:12:04;;;;;;;29.72;7.17;;;;;;;12.11;81.60;101865.48;1741861;80;21019;-58
2021/09/29 03:14:31;;;;;;;30.60;7.37;;;;;;;12.05;81.55;101857.09;1737542;82;21461;-58
2021/09/29 03:16:58;;;;;;;30.43;6.50;;;;;;;12.01;81.70;101868.36;1742329;80;21557;-58
2021/09/29 03:19:27;;;;;;;27.32;7.03;;;;;;;11.97;81.70;101866.64;1725340;81;21838;-59
2021/09/29 03:21:54;;;;;;;28.80;7.62;;;;;;;11.92;81.90;101867.66;1726192;81;21016;-59
2021/09/29 03:24:21;;;;;;;49.50;7.92;;;;;;;11.87;82.02;101875.84;1724909;83;21080;-59
2021/09/29 03:26:48;;;;;;;42.35;7.47;;;;;;;11.82;82.19;101884.00;1724816;81;21027;-60
2021/09/29 03:29:16;;;;;;;30.23;6.75;;;;;;;11.79;82.38;101872.42;1725579;83;21649;-60
2021/09/29 03:31:43;;;;;;;48.40;9.35;;;;;;;11.78;82.60;101876.93;1739553;81;21123;-60
2021/09/29 03:34:10;;;;;;;50.67;9.25;;;;;;;11.75;82.83;101884.59;1735701;81;21286;-60
2021/09/29 03:36:38;;;;;;;43.73;9.03;;;;;;;11.74;83.07;101880.13;1727258;81;21091;-60
2021/09/29 03:39:05;;;;;;;37.45;7.58;;;;;;;11.73;83.05;101881.05;1726025;81;21454;-60
2021/09/29 03:41:32;;;;;;;36.83;8.00;;;;;;;11.70;83.20;101878.44;1725260;81;21068;-61
2021/09/29 03:43:59;;;;;;;24.95;7.78;;;;;;;11.69;83.36;101873.98;1736108;81;21453;-61
2021/09/29 03:46:26;;;;;;;27.30;7.17;;;;;;;11.68;83.53;101884.75;1726876;81;21027;-60
2021/09/29 03:48:53;;;;;;;25.25;8.15;;;;;;;11.66;83.75;101882.11;1711680;82;21135;-61
2021/09/29 03:51:20;;;;;;;23.27;6.85;;;;;;;11.61;84.07;101890.73;1729241;81;21048;-59
2021/09/29 03:53:48;;;;;;;35.68;8.00;;;;;;;11.57;84.26;101872.89;1757534;80;21043;-59
2021/09/29 03:56:15;;;;;;;27.45;7.85;;;;;;;11.56;84.55;101876.05;1721296;83;21168;-60
2021/09/29 03:58:42;;;;;;;32.00;7.58;;;;;;;11.56;84.59;101885.89;1748208;80;21076;-59
2021/09/29 04:01:10;;;;;;;27.98;7.05;;;;;;;11.54;84.68;101879.67;1716853;82;21097;-59
2021/09/29 04:03:37;;;;;;;22.90;7.22;;;;;;;11.51;85.02;101877.95;1743724;80;21052;-59
2021/09/29 04:06:06;;;;;;;33.65;7.03;;;;;;;11.53;85.05;101880.59;1735785;80;20929;-59
2021/09/29 04:08:33;;;;;;;26.33;7.40;;;;;;;11.51;85.19;101888.70;1722427;81;21099;-57
2021/09/29 04:11:02;;;;;;;25.52;7.45;;;;;;;11.49;85.47;101882.91;1742154;80;21065;-58
2021/09/29 04:13:31;;;;;;;29.05;7.20;;;;;;;11.48;85.62;101885.17;1756247;80;20988;-59
2021/09/29 04:15:59;;;;;;;28.12;7.85;;;;;;;11.48;85.77;101886.52;1761137;81;20975;-60
2021/09/29 04:18:26;;;;;;;31.77;7.75;;;;;;;11.50;86.02;101887.37;1759428;81;21079;-60
2021/09/29 04:20:55;;;;;;;42.58;9.10;;;;;;;11.50;86.06;101886.03;1762419;81;21796;-59
2021/09/29 04:23:22;;;;;;;41.13;9.35;;;;;;;11.53;86.14;101886.86;1760299;81;21052;-58
2021/09/29 04:25:52;;;;;;;32.98;7.70;;;;;;;11.58;85.80;101888.98;1756194;81;21035;-57
2021/09/29 04:28:20;;;;;;;39.40;8.43;;;;;;;11.59;85.46;101888.51;1756156;81;22152;-58
2021/09/29 04:30:47;;;;;;;26.68;7.50;;;;;;;11.61;85.16;101893.42;1760186;79;21083;-59
2021/09/29 04:33:15;;;;;;;29.57;7.35;;;;;;;11.64;84.88;101896.04;1752775;81;21074;-59
2021/09/29 04:35:42;;;;;;;31.65;7.53;;;;;;;11.65;84.70;101888.41;1761584;80;21028;-59
2021/09/29 04:38:09;;;;;;;56.65;9.00;;;;;;;11.69;84.61;101895.47;1759086;80;21017;-59
2021/09/29 04:40:37;;;;;;;31.62;7.72;;;;;;;11.73;84.47;101896.30;1761339;81;21039;-59
2021/09/29 04:43:04;;;;;;;26.05;7.05;;;;;;;11.81;84.28;101900.14;1743856;79;21032;-58
2021/09/29 04:45:31;;;;;;;35.65;8.20;;;;;;;11.88;83.95;101903.14;1747798;80;21572;-57
2021/09/29 04:48:04;;;;;;;35.52;8.20;;;;;;;11.93;83.82;101900.33;1747592;81;21060;-59
2021/09/29 04:50:31;;;;;;;38.40;8.08;;;;;;;11.96;83.70;101895.77;1729453;82;21094;-60
2021/09/29 04:53:00;;;;;;;33.42;8.58;;;;;;;12.01;83.25;101905.13;1777231;80;21006;-58
2021/09/29 04:55:29;;;;;;;36.60;7.55;;;;;;;12.04;83.07;101903.23;1747489;82;21544;-57
2021/09/29 04:57:56;;;;;;;34.23;8.73;;;;;;;12.11;82.81;101916.55;1737965;80;21029;-57
2021/09/29 05:00:23;;;;;;;36.95;8.45;;;;;;;12.13;82.51;101909.34;1753882;79;21107;-59
2021/09/29 05:02:50;;;;;;;32.08;8.15;;;;;;;12.17;82.65;101919.99;1750404;80;21857;-61
2021/09/29 05:05:17;;;;;;;26.77;8.23;;;;;;;12.27;82.64;101914.39;1751852;81;21023;-59
2021/09/29 05:07:51;;;;;;;29.23;9.03;;;;;;;12.38;82.47;101920.41;1761839;80;21019;-57
2021/09/29 05:10:28;;;;;;;26.80;7.47;;;;;;;12.44;82.34;101926.08;1749891;80;21830;-58
2021/09/29 05:12:55;;;;;;;30.37;8.33;;;;;;;12.55;82.10;101925.81;1751968;80;21064;-58
2021/09/29 05:15:22;;;;;;;28.05;8.23;;;;;;;12.65;81.65;101923.78;1727981;80;21470;-58
2021/09/29 05:17:51;;;;;;;26.90;8.23;;;;;;;12.72;81.52;101927.64;1762210;80;21536;-58
2021/09/29 05:20:18;;;;;;;27.13;7.62;;;;;;;12.87;80.97;101935.77;1765072;80;21051;-59
2021/09/29 05:22:46;;;;;;;23.20;7.72;;;;;;;13.10;80.40;101936.11;1771776;80;21803;-58
2021/09/29 05:25:14;;;;;;;26.10;7.50;;;;;;;13.51;78.79;101944.00;1755488;80;21092;-60
2021/09/29 05:27:41;;;;;;;27.73;8.63;;;;;;;13.89;77.09;101936.14;1752683;80;21055;-58
2021/09/29 05:30:10;;;;;;;21.48;7.67;;;;;;;14.30;75.81;101936.26;1754046;80;20976;-58
2021/09/29 05:32:37;;;;;;;31.68;8.83;;;;;;;14.81;74.04;101944.08;1751432;81;21457;-58
2021/09/29 05:35:06;;;;;;;19.52;8.50;;;;;;;15.31;71.20;101953.17;1753785;80;21457;-59
2021/09/29 05:37:33;;;;;;;25.65;8.58;;;;;;;15.75;69.89;101961.47;1764884;80;20988;-59
2021/09/29 05:40:00;;;;;;;16.45;7.95;;;;;;;16.09;67.78;101957.11;1752602;80;21009;-59
2021/09/29 05:42:29;;;;;;;23.87;8.33;;;;;;;16.17;66.29;101959.03;1760392;80;21476;-60
2021/09/29 05:44:57;;;;;;;23.45;8.20;;;;;;;16.20;66.14;101962.09;1752662;80;20909;-60
2021/09/29 05:47:24;;;;;;;32.53;9.58;;;;;;;16.10;66.13;101961.58;1752783;80;21956;-58
2021/09/29 05:49:51;;;;;;;23.10;9.28;;;;;;;15.84;66.17;101967.48;1752821;80;21051;-60
2021/09/29 05:52:18;;;;;;;21.48;7.75;;;;;;;15.50;67.01;101968.73;1758527;80;21309;-58
2021/09/29 05:54:45;;;;;;;25.55;8.45;;;;;;;15.21;68.14;101970.17;1756137;80;21503;-58
2021/09/29 05:57:13;;;;;;;25.23;7.70;;;;;;;14.93;69.17;101956.77;1750466;81;20894;-60
2021/09/29 05:59:40;;;;;;;19.37;7.72;;;;;;;14.69;70.34;101962.00;1743333;81;21282;-60
2021/09/29 06:02:07;;;;;;;23.92;8.68;;;;;;;14.51;71.22;101967.09;1751693;80;21044;-60
2021/09/29 06:04:35;;;;;;;26.50;9.28;;;;;;;14.41;71.79;101954.80;1774294;79;21088;-60
2021/09/29 06:07:03;;;;;;;20.30;9.55;;;;;;;14.39;72.36;101966.11;1773289;79;20993;-59
2021/09/29 06:09:31;;;;;;;13.75;7.72;;;;;;;14.40;72.25;101971.48;1779210;79;21040;-60
2021/09/29 06:12:10;;;;;;;22.42;8.88;;;;;;;14.35;72.26;101970.71;1782267;78;21544;-60
2021/09/29 06:14:38;;;;;;;22.58;8.18;;;;;;;14.25;72.66;101973.30;1774391;79;21448;-59
2021/09/29 06:17:42;;;;;;;25.68;8.50;;;;;;;14.14;73.31;101972.27;1763408;80;21095;-58
2021/09/29 06:19:43;;;;;;;20.90;8.88;;;;;;;14.12;73.81;101980.88;1751262;79;21520;-59
2021/09/29 06:22:11;;;;;;;25.20;8.45;;;;;;;14.11;73.71;101979.12;1776178;79;21051;-60
2021/09/29 06:24:38;;;;;;;24.10;8.88;;;;;;;14.11;73.97;101980.47;1769246;79;21870;-60
2021/09/29 06:27:06;;;;;;;20.97;7.95;;;;;;;14.14;73.96;101977.67;1800809;78;21031;-60
2021/09/29 06:29:33;;;;;;;26.50;8.35;;;;;;;14.22;73.96;101990.45;1797764;78;21071;-58
2021/09/29 06:32:02;;;;;;;27.85;8.60;;;;;;;14.26;73.71;101967.87;1799934;78;21522;-59
2021/09/29 06:34:30;;;;;;;15.63;8.30;;;;;;;14.37;73.71;101993.61;1788240;78;21705;-60
2021/09/29 06:36:58;;;;;;;16.17;8.35;;;;;;;14.46;73.33;101990.61;1783236;79;21095;-59
2021/09/29 06:39:25;;;;;;;20.55;7.25;;;;;;;14.43;73.21;101994.76;1799224;78;21134;-59
2021/09/29 06:41:53;;;;;;;20.17;8.98;;;;;;;14.40;73.71;101993.52;1788084;79;21067;-60
2021/09/29 06:44:20;;;;;;;24.50;8.93;;;;;;;14.37;73.60;101990.91;1775372;79;21016;-60
2021/09/29 06:46:50;;;;;;;19.40;7.87;;;;;;;14.39;74.35;101983.66;1802672;78;21082;-58
2021/09/29 06:49:18;;;;;;;22.67;8.43;;;;;;;14.43;74.71;102001.05;1783533;78;21799;-58
2021/09/29 06:51:46;;;;;;;20.75;8.18;;;;;;;14.45;74.37;101992.89;1802432;78;21055;-58
2021/09/29 06:54:13;;;;;;;21.45;8.05;;;;;;;14.42;74.50;101984.91;1801093;78;21103;-58
2021/09/29 06:56:45;;;;;;;26.57;8.80;;;;;;;14.46;75.21;101985.22;1801742;78;21610;-60
2021/09/29 06:59:11;;;;;;;26.87;8.13;;;;;;;14.58;75.04;101983.48;1780958;78;20980;-60
2021/09/29 07:01:39;;;;;;;19.98;8.55;;;;;;;14.68;74.93;101987.22;1792759;78;21765;-60
2021/09/29 07:04:06;;;;;;;18.02;8.28;;;;;;;14.76;74.78;102008.16;1785660;78;21069;-60
2021/09/29 07:06:33;;;;;;;22.50;8.85;;;;;;;14.89;74.58;102002.75;1791251;78;21051;-58
2021/09/29 07:09:01;;;;;;;25.75;9.83;;;;;;;15.08;74.38;102002.14;1794574;78;21052;-59
2021/09/29 07:11:28;;;;;;;22.98;9.03;;;;;;;15.58;73.60;102007.16;1773156;78;20980;-59
2021/09/29 07:13:57;;;;;;;24.87;9.33;;;;;;;16.02;71.21;102019.54;1771520;79;21130;-59
2021/09/29 07:16:25;;;;;;;26.70;9.43;;;;;;;16.02;69.70;102013.27;1755452;80;20957;-59
2021/09/29 07:18:55;;;;;;;20.68;9.00;;;;;;;15.93;69.97;102007.73;1754730;79;21111;-60
2021/09/29 07:21:21;;;;;;;22.52;8.95;;;;;;;15.83;70.34;102013.05;1761235;80;21434;-59
2021/09/29 07:23:49;;;;;;;27.20;9.13;;;;;;;15.65;70.76;102012.78;1769605;79;21888;-59
2021/09/29 07:26:16;;;;;;;20.45;9.33;;;;;;;15.47;71.54;102023.76;1733582;81;21514;-58
2021/09/29 07:28:44;;;;;;;20.95;8.95;;;;;;;15.36;72.11;102009.77;1746982;80;21561;-61
2021/09/29 07:31:11;;;;;;;17.90;8.33;;;;;;;15.23;72.97;102007.95;1751851;80;20985;-60
2021/09/29 07:33:41;;;;;;;19.57;8.05;;;;;;;15.14;73.73;102018.16;1747867;80;21132;-60
2021/09/29 07:36:11;;;;;;;23.90;9.60;;;;;;;15.13;73.57;102036.63;1737988;80;21056;-60
2021/09/29 07:38:40;;;;;;;18.73;8.30;;;;;;;15.06;73.69;102017.52;1749018;80;21190;-62
2021/09/29 07:41:08;;;;;;;24.52;9.35;;;;;;;14.98;74.24;102011.50;1752003;80;21104;-60
2021/09/29 07:43:37;;;;;;;19.23;8.35;;;;;;;14.92;74.33;102028.78;1756828;80;21056;-61
2021/09/29 07:46:13;;;;;;;18.80;8.30;;;;;;;14.83;74.55;102043.46;1730863;80;20998;-59
2021/09/29 07:48:44;;;;;;;26.80;8.73;;;;;;;14.80;74.43;102035.92;1726413;80;21091;-58
2021/09/29 07:51:15;;;;;;;24.30;8.55;;;;;;;14.74;74.43;102048.69;1752687;80;21407;-61
2021/09/29 07:53:45;;;;;;;21.05;8.48;;;;;;;14.66;74.50;102039.03;1752134;80;21422;-60
2021/09/29 07:56:12;;;;;;;17.23;9.15;;;;;;;14.57;74.70;102039.75;1751477;80;21078;-58
2021/09/29 07:58:40;;;;;;;30.32;8.98;;;;;;;14.56;75.36;102024.94;1750441;80;21067;-60
2021/09/29 08:01:07;;;;;;;22.90;8.70;;;;;;;14.59;75.79;102018.99;1748002;80;21004;-58
2021/09/29 08:03:34;;;;;;;18.60;8.10;;;;;;;14.67;75.50;102032.70;1749677;80;22468;-59
2021/09/29 08:06:03;;;;;;;19.87;8.33;;;;;;;14.69;74.91;102029.03;1748594;80;21103;-60
2021/09/29 08:08:31;;;;;;;20.05;8.78;;;;;;;14.71;75.11;102024.98;1752405;80;20972;-60
2021/09/29 08:11:00;;;;;;;19.65;8.80;;;;;;;14.75;75.22;102026.16;1756772;80;21470;-57
2021/09/29 08:13:27;;;;;;;19.42;8.45;;;;;;;14.72;75.69;102034.84;1762399;79;21009;-58
2021/09/29 08:15:54;;;;;;;18.48;8.80;;;;;;;14.70;76.14;102025.84;1761575;79;21126;-60
2021/09/29 08:18:23;;;;;;;20.20;8.95;;;;;;;14.67;75.67;102021.45;1757773;79;21060;-58
2021/09/29 08:20:52;;;;;;;19.27;8.28;;;;;;;14.67;75.72;102031.34;1767126;79;21064;-58
2021/09/29 08:23:29;;;;;;;19.82;8.00;;;;;;;14.75;75.75;102045.53;1761246;80;21117;-60
2021/09/29 08:31:34;;;;;;;19.30;8.05;;;;;;;14.74;75.22;102035.67;1766267;79;21046;-60
2021/09/29 08:34:12;;;;;;;23.90;8.85;;;;;;;14.80;74.44;102034.56;1761983;79;21097;-59
2021/09/29 08:36:42;;;;;;;17.52;6.92;;;;;;;14.83;74.56;102019.65;1759195;79;21131;-58
2021/09/29 08:39:16;;;;;;;15.90;7.62;;;;;;;14.88;74.63;102030.69;1759990;79;21106;-57
2021/09/29 08:41:58;;;;;;;18.55;8.18;;;;;;;14.96;74.12;102034.98;1756144;80;21902;-59
2021/09/29 08:49:51;;;;;;;17.42;8.05;;;;;;;15.03;73.58;102022.57;1768430;79;21055;-60
2021/09/29 08:52:24;;;;;;;25.80;7.70;;;;;;;15.10;72.85;102039.43;1765753;80;22380;-58
2021/09/29 09:16:31;;;;;;;28.00;7.58;;;;;;;15.28;69.73;102038.39;1750085;80;21407;-59
2021/09/29 09:19:04;;;;;;;23.47;8.13;;;;;;;15.29;69.30;102033.41;1749896;81;21049;-58
2021/09/29 09:21:36;;;;;;;14.95;6.95;;;;;;;15.34;69.71;102030.07;1752676;79;21729;-60
2021/09/29 09:24:18;;;;;;;21.50;7.40;;;;;;;15.42;68.65;102039.27;1738073;81;20981;-60
2021/09/29 09:27:08;;;;;;;21.12;7.70;;;;;;;15.40;67.63;102060.06;1755530;80;21107;-60
2021/09/29 09:29:54;;;;;;;21.25;6.95;;;;;;;15.40;68.68;102037.98;1742756;80;21530;-60
2021/09/29 09:32:24;;;;;;;;;;;;;;;15.45;68.35;102033.30;1754339;80;21038;-58
2021/09/29 09:35:05;;;;;;;14.05;7.05;;;;;;;15.52;68.12;102038.47;1736802;81;21210;-58
2021/09/29 09:37:33;;;;;;;15.78;6.67;;;;;;;15.58;67.07;102033.74;1739029;80;21019;-58
2021/09/29 09:40:13;;;;;;;25.68;8.00;;;;;;;15.63;66.79;102047.10;1752096;80;21068;-58
2021/09/29 09:42:43;;;;;;;26.62;8.03;;;;;;;15.67;66.98;102036.58;1753616;80;20965;-58
2021/09/29 09:45:11;;;;;;;23.52;7.42;;;;;;;15.78;67.28;102042.06;1758523;80;20965;-58
2021/09/29 09:47:44;;;;;;;22.87;8.28;;;;;;;15.89;66.48;102043.95;1747239;81;21124;-59
2021/09/29 09:50:11;;;;;;;19.35;8.88;;;;;;;15.89;66.18;102039.89;1752136;79;21076;-60
2021/09/29 09:52:42;;;;;;;20.55;7.80;;;;;;;15.81;66.87;102042.84;1770007;79;21129;-59
2021/09/29 09:55:17;;;;;;;23.50;8.90;;;;;;;15.80;66.13;102048.29;1769737;80;21080;-59
2021/09/29 09:57:45;;;;;;;22.70;7.75;;;;;;;15.73;66.89;102035.00;1767555;79;21494;-61
2021/09/29 10:00:19;;;;;;;18.60;7.70;;;;;;;15.72;64.97;102036.43;1719047;81;21214;-59
2021/09/29 10:03:02;;;;;;;22.17;6.90;;;;;;;15.74;64.42;102045.36;1712632;81;21138;-59
2021/09/29 10:05:35;;;;;;;24.87;7.40;;;;;;;15.73;64.83;102037.70;1786365;79;21068;-60
2021/09/29 10:08:07;;;;;;;20.65;7.60;;;;;;;15.74;65.48;102034.06;1783215;79;21522;-59
2021/09/29 10:10:43;;;;;;;19.12;7.75;;;;;;;15.80;66.52;102050.54;1783867;79;21040;-60
2021/09/29 10:27:18;;;;;;;18.65;7.65;;;;;;;15.84;66.64;102031.04;1722265;80;21144;-61
2021/09/29 10:29:52;;;;;;;20.88;7.75;;;;;;;15.87;64.57;102029.57;1751229;80;21040;-61
2021/09/29 10:32:25;;;;;;;19.57;7.85;;;;;;;15.87;63.55;102036.33;1761039;80;20992;-61
2021/09/29 10:35:06;;;;;;;28.15;7.47;;;;;;;15.95;64.98;102029.33;1765038;80;21519;-60
2021/09/29 10:37:59;;;;;;;24.12;7.50;;;;;;;15.99;65.98;102030.97;1775190;79;21358;-60
2021/09/29 10:40:52;;;;;;;22.52;7.00;;;;;;;15.95;64.37;102030.19;1762260;79;21199;-61
2021/09/29 10:43:05;;;;;;;36.38;7.55;;;;;;;15.92;65.17;102015.43;1796480;78;21048;-60
2021/09/29 10:45:56;;;;;;;26.68;6.75;;;;;;;15.97;64.50;102022.03;1764926;79;21493;-60
2021/09/29 11:11:10;;;;;;;17.75;6.72;;;;;;;16.17;62.67;102008.63;1761751;80;21091;-60
2021/09/29 11:30:59;;;;;;;20.50;6.67;;;;;;;16.17;63.06;101995.10;1784548;79;21117;-60
2021/09/29 11:33:43;;;;;;;13.35;6.15;;;;;;;16.19;61.63;102004.49;1780992;79;21514;-60
2021/09/29 11:39:22;;;;;;;18.85;5.70;;;;;;;16.22;61.77;101994.90;1767231;79;21033;-60
2021/09/29 12:12:25;;;;;;;18.62;6.05;;;;;;;16.26;63.06;101992.51;1761560;79;21009;-60
2021/09/29 12:14:57;;;;;;;15.18;5.33;;;;;;;16.30;61.50;101992.80;1753969;80;21409;-60
2021/09/29 12:17:26;;;;;;;22.10;5.87;;;;;;;16.34;60.34;102007.06;1754393;80;21181;-59
2021/09/29 12:20:10;;;;;;;12.88;5.45;;;;;;;16.39;59.87;101997.42;1748400;80;21104;-59
2021/09/29 12:22:32;;;;;;;27.62;5.78;;;;;;;16.38;59.36;101997.02;1756096;80;21108;-60
2021/09/29 12:25:05;;;;;;;16.87;5.87;;;;;;;16.35;59.60;102006.61;1755889;80;21053;-60
2021/09/29 12:30:33;;;;;;;37.17;6.20;;;;;;;16.40;59.65;101995.13;1746388;80;21120;-58
2021/09/29 12:33:15;;;;;;;16.20;5.45;;;;;;;16.41;60.26;101994.17;1751283;80;21174;-60
2021/09/29 12:35:54;;;;;;;14.78;5.67;;;;;;;16.49;59.97;102001.54;1753894;80;21113;-60
2021/09/29 12:38:25;;;;;;;18.62;5.65;;;;;;;16.51;59.63;102005.52;1754040;80;21021;-60
2021/09/29 12:40:52;;;;;;;22.15;6.12;;;;;;;16.47;60.08;102004.30;1750741;80;21208;-60
2021/09/29 12:43:20;;;;;;;15.38;5.83;;;;;;;16.48;59.12;102014.66;1715180;80;22170;-59
2021/09/29 12:45:49;;;;;;;28.10;6.12;;;;;;;16.44;57.69;102007.13;1757579;80;20965;-60
2021/09/29 12:48:21;;;;;;;35.80;6.45;;;;;;;16.37;58.79;101993.89;1756980;80;21103;-59
2021/09/29 12:53:37;;;;;;;16.00;5.42;;;;;;;16.42;59.79;102006.77;1752643;80;21107;-59
2021/09/29 12:56:10;;;;;;;26.10;5.90;;;;;;;16.39;59.87;101998.77;1755170;80;21318;-59
2021/09/29 12:58:33;;;;;;;16.12;5.22;;;;;;;16.37;60.69;101992.54;1758653;80;21124;-60
2021/09/29 13:01:01;;;;;;;28.67;5.90;;;;;;;16.41;60.41;101999.14;1751925;80;21064;-60
2021/09/29 13:03:29;;;;;;;19.82;5.30;;;;;;;16.43;59.87;101996.34;1751227;80;21057;-60
2021/09/29 13:05:58;;;;;;;22.98;6.28;;;;;;;16.48;58.65;101990.30;1764317;80;21099;-58
2021/09/29 13:08:26;;;;;;;27.73;5.37;;;;;;;16.53;58.13;101988.28;1755771;80;21132;-61
2021/09/29 13:10:55;;;;;;;34.48;6.20;;;;;;;16.58;57.82;101982.20;1749765;80;21096;-62
2021/09/29 13:13:22;;;;;;;18.48;5.25;;;;;;;16.66;56.56;101999.95;1761664;80;21119;-59
2021/09/29 13:15:58;;;;;;;31.50;6.37;;;;;;;16.72;55.53;101986.19;1751798;80;21035;-58
2021/09/29 13:18:25;;;;;;;31.77;6.78;;;;;;;16.76;56.16;101987.81;1753398;80;21001;-55
2021/09/29 13:20:55;;;;;;;19.25;4.80;;;;;;;16.86;56.18;101993.73;1736787;80;22055;-61
2021/09/29 13:23:27;;;;;;;18.70;5.62;;;;;;;17.00;55.74;101991.83;1765189;80;20941;-60
2021/09/29 13:26:21;;;;;;;18.30;5.00;;;;;;;17.06;56.00;101987.48;1759498;80;21108;-61
2021/09/29 13:36:52;;;;;;;17.25;6.40;;;;;;;17.42;55.77;102019.38;1756570;80;21435;-61
2021/09/29 13:39:19;;;;;;;18.73;5.83;;;;;;;17.42;56.39;102019.38;1763947;80;21455;-56
2021/09/29 13:41:52;;;;;;;18.07;5.83;;;;;;;17.29;56.84;101996.45;1758785;80;21099;-60